Aérodrome :
LOGIN :

S'inscrire | Disclaimer

   EN    FR    IT 

 










Légende :    VFR   VFR Marginal   IFR   IFR Intensif   IFR Très Intensif
Visi : 
Plafond : 
>= 8 km
>= 3000ft
5 à 8 km
1000 à 3000 ft
1500m à 5 km
500 à 1000 ft
800 à 1500m
200 à 500 ft
< 800m
< 200 ft
Symboles :   Orages  Brouillard  Fortes neiges  Fortes précipitations  Vent > 20 kt
SIGMETs :   Divers  Orages  Givrage  Turbulence  Onde Orograph.  Cendres Volcan.







- Altitude de l'aérodrome : 776 ft
- Code IATA : RMS


ETAR - Ramstein Air Base

DERNIER METAR :
  • 190756Z AUTO 00000KT 9999 CLR 22/12 A3008 RMK AO2 SLP182 T02230122 $

METARs EXPIRÉS :
  • 190656Z AUTO 00000KT 9999 CLR 20/12 A3008 RMK AO2 SLP179 T01980121 $
  • 190556Z AUTO 00000KT 9999 CLR 16/13 A3007 RMK AO2 SLP177 T01620127 10162 20093 50002 $
  • 190456Z AUTO 00000KT 9999 CLR 12/12 A3007 RMK AO2 SLP178 T01150115 $

TAF TAF ETAR
Valide du 19 à 02h jusqu'au 20 à 08h UTC


190209Z 1902/2008 VRB06KT 9999 FEW060 QNH2995INS
BECMG 1911/1912 04012KT 9999 FEW070 QNH2995INS TX28/1915Z TN09/1904Z
Pas de NOTAMs connus pour ce terrain.



MET'MAP, la Météo Aéronautique d'un coup d'oeil ! - Copyright ORBIFLY Décembre 2007 - Disclaimer

ORBIFLY MET'MAP TEAM :

Programmation & Développement : Alexandra Zaïnal
Conception & Développement : Baudouin d'Aumeries
Co-Programmation & Développement : Marc-Olivier Méhu
Soutien technique & logistique : Manuel Goepfert

Contact : metmap@orbifly.com




SOURCES & CREDITS :

   NOAA